sensor_id;sensor_type;location;lat;lon;timestamp;pressure;altitude;pressure_sealevel;temperature;humidity
65546;BME280;52177;55.968;37.498;2023-08-31T00:00:24;99686.81;;;14.32;77.27
65546;BME280;52177;55.968;37.498;2023-08-31T00:01:00;99684.13;;;14.32;77.21
65546;BME280;52177;55.968;37.498;2023-08-31T00:01:31;99682.50;;;14.31;77.28
65546;BME280;52177;55.968;37.498;2023-08-31T00:02:03;99684.31;;;14.30;77.31
65546;BME280;52177;55.968;37.498;2023-08-31T00:02:34;99682.69;;;14.29;77.33
65546;BME280;52177;55.968;37.498;2023-08-31T00:03:04;99684.53;;;14.29;77.33
65546;BME280;52177;55.968;37.498;2023-08-31T00:03:35;99685.56;;;14.28;77.28
65546;BME280;52177;55.968;37.498;2023-08-31T00:04:05;99680.41;;;14.26;77.40
65546;BME280;52177;55.968;37.498;2023-08-31T00:04:41;99679.59;;;14.26;77.54
65546;BME280;52177;55.968;37.498;2023-08-31T00:05:11;99683.28;;;14.25;77.53
65546;BME280;52177;55.968;37.498;2023-08-31T00:05:42;99680.78;;;14.23;77.59
65546;BME280;52177;55.968;37.498;2023-08-31T00:06:13;99681.19;;;14.20;77.56
65546;BME280;52177;55.968;37.498;2023-08-31T00:06:44;99683.25;;;14.18;77.57
65546;BME280;52177;55.968;37.498;2023-08-31T00:07:16;99679.94;;;14.16;77.70
65546;BME280;52177;55.968;37.498;2023-08-31T00:07:47;99685.53;;;14.14;77.86
65546;BME280;52177;55.968;37.498;2023-08-31T00:08:17;99686.34;;;14.15;77.77
65546;BME280;52177;55.968;37.498;2023-08-31T00:08:48;99688.84;;;14.17;77.88
65546;BME280;52177;55.968;37.498;2023-08-31T00:09:18;99689.03;;;14.15;77.87
65546;BME280;52177;55.968;37.498;2023-08-31T00:09:49;99686.34;;;14.15;77.95
65546;BME280;52177;55.968;37.498;2023-08-31T00:10:20;99693.34;;;14.16;78.06
65546;BME280;52177;55.968;37.498;2023-08-31T00:10:57;99687.16;;;14.15;78.11
65546;BME280;52177;55.968;37.498;2023-08-31T00:11:28;99685.31;;;14.16;77.86
65546;BME280;52177;55.968;37.498;2023-08-31T00:11:58;99683.47;;;14.17;78.13
65546;BME280;52177;55.968;37.498;2023-08-31T00:12:31;99690.66;;;14.16;78.13
65546;BME280;52177;55.968;37.498;2023-08-31T00:13:02;99687.16;;;14.15;78.03
65546;BME280;52177;55.968;37.498;2023-08-31T00:13:33;99687.16;;;14.15;78.18
65546;BME280;52177;55.968;37.498;2023-08-31T00:14:04;99687.97;;;14.16;78.14
65546;BME280;52177;55.968;37.498;2023-08-31T00:14:34;99687.16;;;14.15;78.13
65546;BME280;52177;55.968;37.498;2023-08-31T00:15:05;99687.16;;;14.15;78.05
65546;BME280;52177;55.968;37.498;2023-08-31T00:15:36;99689.03;;;14.15;78.21
65546;BME280;52177;55.968;37.498;2023-08-31T00:16:07;99683.66;;;14.15;78.21
65546;BME280;52177;55.968;37.498;2023-08-31T00:16:39;99684.47;;;14.15;78.21
65546;BME280;52177;55.968;37.498;2023-08-31T00:17:10;99685.31;;;14.16;78.25
65546;BME280;52177;55.968;37.498;2023-08-31T00:17:41;99690.66;;;14.16;78.14
65546;BME280;52177;55.968;37.498;2023-08-31T00:18:12;99682.63;;;14.16;78.13
65546;BME280;52177;55.968;37.498;2023-08-31T00:18:43;99684.66;;;14.14;78.22
65546;BME280;52177;55.968;37.498;2023-08-31T00:19:15;99687.34;;;14.14;78.30
65546;BME280;52177;55.968;37.498;2023-08-31T00:19:46;99684.66;;;14.14;78.30
65546;BME280;52177;55.968;37.498;2023-08-31T00:20:16;99686.34;;;14.15;78.39
65546;BME280;52177;55.968;37.498;2023-08-31T00:20:47;99684.47;;;14.15;78.29
65546;BME280;52177;55.968;37.498;2023-08-31T00:21:17;99686.34;;;14.15;78.18
65546;BME280;52177;55.968;37.498;2023-08-31T00:21:48;99682.63;;;14.16;78.21
65546;BME280;52177;55.968;37.498;2023-08-31T00:22:18;99683.66;;;14.15;78.27
65546;BME280;52177;55.968;37.498;2023-08-31T00:22:49;99678.31;;;14.15;78.19
65546;BME280;52177;55.968;37.498;2023-08-31T00:23:19;99683.47;;;14.17;78.35
65546;BME280;52177;55.968;37.498;2023-08-31T00:23:50;99680.16;;;14.14;78.27
65546;BME280;52177;55.968;37.498;2023-08-31T00:24:23;99680.97;;;14.15;78.30
65546;BME280;52177;55.968;37.498;2023-08-31T00:24:58;99679.31;;;14.14;78.38
65546;BME280;52177;55.968;37.498;2023-08-31T00:25:28;99677.66;;;14.13;78.31
65546;BME280;52177;55.968;37.498;2023-08-31T00:25:59;99676.84;;;14.12;78.52
65546;BME280;52177;55.968;37.498;2023-08-31T00:26:30;99678.50;;;14.13;78.37
65546;BME280;52177;55.968;37.498;2023-08-31T00:27:01;99676.03;;;14.12;78.32
65546;BME280;52177;55.968;37.498;2023-08-31T00:27:36;99675.41;;;14.10;78.35
65546;BME280;52177;55.968;37.498;2023-08-31T00:28:07;99670.03;;;14.10;78.43
65546;BME280;52177;55.968;37.498;2023-08-31T00:28:39;99670.03;;;14.10;78.41
65546;BME280;52177;55.968;37.498;2023-08-31T00:29:10;99674.34;;;14.11;78.42
65546;BME280;52177;55.968;37.498;2023-08-31T00:29:41;99673.34;;;14.12;78.32
65546;BME280;52177;55.968;37.498;2023-08-31T00:30:12;99666.31;;;14.11;78.33
65546;BME280;52177;55.968;37.498;2023-08-31T00:30:44;99677.66;;;14.13;78.39
65546;BME280;52177;55.968;37.498;2023-08-31T00:31:15;99677.66;;;14.13;78.43
65546;BME280;52177;55.968;37.498;2023-08-31T00:31:45;99677.88;;;14.11;78.47
65546;BME280;52177;55.968;37.498;2023-08-31T00:32:18;99675.00;;;14.13;78.59
65546;BME280;52177;55.968;37.498;2023-08-31T00:32:50;99676.63;;;14.14;78.63
65546;BME280;52177;55.968;37.498;2023-08-31T00:33:25;99679.53;;;14.12;78.44
65546;BME280;52177;55.968;37.498;2023-08-31T00:33:56;99673.34;;;14.12;78.43
65546;BME280;52177;55.968;37.498;2023-08-31T00:34:26;99672.50;;;14.11;78.35
65546;BME280;52177;55.968;37.498;2023-08-31T00:34:57;99681.41;;;14.12;78.43
65546;BME280;52177;55.968;37.498;2023-08-31T00:35:28;99684.06;;;14.12;78.38
65546;BME280;52177;55.968;37.498;2023-08-31T00:35:59;99677.88;;;14.11;78.35
65546;BME280;52177;55.968;37.498;2023-08-31T00:36:31;99685.91;;;14.11;78.39
65546;BME280;52177;55.968;37.498;2023-08-31T00:37:01;99678.06;;;14.10;78.46
65546;BME280;52177;55.968;37.498;2023-08-31T00:37:32;99683.44;;;14.10;78.44
65546;BME280;52177;55.968;37.498;2023-08-31T00:38:04;99679.94;;;14.09;78.45
65546;BME280;52177;55.968;37.498;2023-08-31T00:38:34;99683.44;;;14.10;78.46
65546;BME280;52177;55.968;37.498;2023-08-31T00:39:06;99685.50;;;14.08;78.38
65546;BME280;52177;55.968;37.498;2023-08-31T00:39:38;99686.31;;;14.08;78.27
65546;BME280;52177;55.968;37.498;2023-08-31T00:40:09;99686.31;;;14.08;78.17
65546;BME280;52177;55.968;37.498;2023-08-31T00:40:42;99682.00;;;14.07;78.14
65546;BME280;52177;55.968;37.498;2023-08-31T00:41:15;99684.66;;;14.07;78.16
65546;BME280;52177;55.968;37.498;2023-08-31T00:41:45;99684.03;;;14.05;77.94
65546;BME280;52177;55.968;37.498;2023-08-31T00:42:15;99696.63;;;14.05;78.08
65546;BME280;52177;55.968;37.498;2023-08-31T00:42:46;99694.94;;;14.04;78.04
65546;BME280;52177;55.968;37.498;2023-08-31T00:43:16;99695.78;;;14.04;77.98
65546;BME280;52177;55.968;37.498;2023-08-31T00:43:48;99700.50;;;14.02;78.06
65546;BME280;52177;55.968;37.498;2023-08-31T00:44:18;99699.91;;;14.00;78.30
65546;BME280;52177;55.968;37.498;2023-08-31T00:44:49;99696.38;;;14.00;78.23
65546;BME280;52177;55.968;37.498;2023-08-31T00:45:20;99699.44;;;13.97;78.09
65546;BME280;52177;55.968;37.498;2023-08-31T00:45:53;99696.97;;;13.95;78.14
65546;BME280;52177;55.968;37.498;2023-08-31T00:46:28;99702.53;;;13.93;78.13
65546;BME280;52177;55.968;37.498;2023-08-31T00:47:00;99696.09;;;13.88;78.28
65546;BME280;52177;55.968;37.498;2023-08-31T00:47:32;99703.50;;;13.86;78.38
65546;BME280;52177;55.968;37.498;2023-08-31T00:48:04;99701.03;;;13.84;78.48
65546;BME280;52177;55.968;37.498;2023-08-31T00:48:34;99702.06;;;13.83;78.67
65546;BME280;52177;55.968;37.498;2023-08-31T00:49:05;99698.75;;;13.81;78.55
65546;BME280;52177;55.968;37.498;2023-08-31T00:49:35;99697.72;;;13.82;78.83
65546;BME280;52177;55.968;37.498;2023-08-31T00:50:06;99699.59;;;13.82;78.80
65546;BME280;52177;55.968;37.498;2023-08-31T00:50:37;99697.72;;;13.82;78.67
65546;BME280;52177;55.968;37.498;2023-08-31T00:51:08;99703.91;;;13.83;78.75
65546;BME280;52177;55.968;37.498;2023-08-31T00:51:40;99701.88;;;13.85;78.87
65546;BME280;52177;55.968;37.498;2023-08-31T00:52:11;99703.09;;;13.82;78.95
65546;BME280;52177;55.968;37.498;2023-08-31T00:52:42;99705.97;;;13.81;78.87
65546;BME280;52177;55.968;37.498;2023-08-31T00:53:15;99699.59;;;13.82;79.03
65546;BME280;52177;55.968;37.498;2023-08-31T00:53:46;99707.81;;;13.80;78.94
65546;BME280;52177;55.968;37.498;2023-08-31T00:54:19;99708.84;;;13.79;78.98
65546;BME280;52177;55.968;37.498;2023-08-31T00:54:52;99712.53;;;13.78;79.09
65546;BME280;52177;55.968;37.498;2023-08-31T00:55:23;99709.84;;;13.78;79.16
65546;BME280;52177;55.968;37.498;2023-08-31T00:55:54;99715.22;;;13.78;79.24
65546;BME280;52177;55.968;37.498;2023-08-31T00:56:24;99706.34;;;13.78;79.31
65546;BME280;52177;55.968;37.498;2023-08-31T00:56:56;99707.19;;;13.78;79.34
65546;BME280;52177;55.968;37.498;2023-08-31T00:57:27;99709.84;;;13.78;79.38
65546;BME280;52177;55.968;37.498;2023-08-31T00:57:59;99705.31;;;13.79;79.51
65546;BME280;52177;55.968;37.498;2023-08-31T00:58:30;99706.19;;;13.79;79.49
65546;BME280;52177;55.968;37.498;2023-08-31T00:59:00;99706.19;;;13.79;79.52
65546;BME280;52177;55.968;37.498;2023-08-31T00:59:31;99700.81;;;13.79;79.42
65546;BME280;52177;55.968;37.498;2023-08-31T01:00:02;99707.81;;;13.80;79.41
65546;BME280;52177;55.968;37.498;2023-08-31T01:00:49;99701.63;;;13.80;79.49
65546;BME280;52177;55.968;37.498;2023-08-31T01:01:38;99710.50;;;13.80;79.61
65546;BME280;52177;55.968;37.498;2023-08-31T01:02:19;99705.31;;;13.79;79.66
65546;BME280;52177;55.968;37.498;2023-08-31T01:03:01;99704.31;;;13.80;79.82
65546;BME280;52177;55.968;37.498;2023-08-31T01:05:01;99700.59;;;13.81;79.75
65546;BME280;52177;55.968;37.498;2023-08-31T01:06:18;99693.59;;;13.80;79.71
65546;BME280;52177;55.968;37.498;2023-08-31T01:10:02;99696.63;;;13.70;79.69
65546;BME280;52177;55.968;37.498;2023-08-31T01:10:59;99694.34;;;13.67;79.85
65546;BME280;52177;55.968;37.498;2023-08-31T01:12:32;99686.94;;;13.69;80.00
65546;BME280;52177;55.968;37.498;2023-08-31T01:13:14;99693.09;;;13.69;79.98
65546;BME280;52177;55.968;37.498;2023-08-31T01:13:51;99692.28;;;13.69;79.84
65546;BME280;52177;55.968;37.498;2023-08-31T01:14:29;99695.78;;;13.69;79.76
65546;BME280;52177;55.968;37.498;2023-08-31T01:15:03;99693.97;;;13.70;79.79
65546;BME280;52177;55.968;37.498;2023-08-31T01:15:50;99694.78;;;13.70;79.66
65546;BME280;52177;55.968;37.498;2023-08-31T01:16:24;99693.75;;;13.71;79.60
65546;BME280;52177;55.968;37.498;2023-08-31T01:16:56;99697.28;;;13.72;79.50
65546;BME280;52177;55.968;37.498;2023-08-31T01:17:29;99694.59;;;13.72;79.43
65546;BME280;52177;55.968;37.498;2023-08-31T01:18:01;99694.38;;;13.73;79.38
65546;BME280;52177;55.968;37.498;2023-08-31T01:18:32;99692.34;;;13.76;79.45
65546;BME280;52177;55.968;37.498;2023-08-31T01:19:17;99692.50;;;13.74;79.31
65546;BME280;52177;55.968;37.498;2023-08-31T01:19:57;99692.50;;;13.74;79.31
65546;BME280;52177;55.968;37.498;2023-08-31T01:20:44;99691.06;;;13.71;79.01
65546;BME280;52177;55.968;37.498;2023-08-31T01:21:24;99687.75;;;13.69;78.98
65546;BME280;52177;55.968;37.498;2023-08-31T01:21:58;99681.78;;;13.67;79.18
65546;BME280;52177;55.968;37.498;2023-08-31T01:23:10;99689.19;;;13.65;79.36
65546;BME280;52177;55.968;37.498;2023-08-31T01:23:54;99688.34;;;13.65;79.17
65546;BME280;52177;55.968;37.498;2023-08-31T01:24:25;99689.56;;;13.62;79.37
65546;BME280;52177;55.968;37.498;2023-08-31T01:24:58;99693.28;;;13.61;79.50
65546;BME280;52177;55.968;37.498;2023-08-31T01:25:30;99689.78;;;13.61;79.32
65546;BME280;52177;55.968;37.498;2023-08-31T01:26:01;99683.59;;;13.60;79.49
65546;BME280;52177;55.968;37.498;2023-08-31T01:26:32;99688.97;;;13.60;79.50
65546;BME280;52177;55.968;37.498;2023-08-31T01:27:03;99682.75;;;13.60;79.67
65546;BME280;52177;55.968;37.498;2023-08-31T01:27:33;99679.25;;;13.59;79.70
65546;BME280;52177;55.968;37.498;2023-08-31T01:28:05;99687.47;;;13.58;79.75
65546;BME280;52177;55.968;37.498;2023-08-31T01:28:36;99691.19;;;13.57;79.70
65546;BME280;52177;55.968;37.498;2023-08-31T01:29:08;99692.22;;;13.56;79.68
65546;BME280;52177;55.968;37.498;2023-08-31T01:29:39;99682.53;;;13.55;79.94
65546;BME280;52177;55.968;37.498;2023-08-31T01:30:09;99684.38;;;13.54;79.84
65546;BME280;52177;55.968;37.498;2023-08-31T01:30:40;99685.38;;;13.53;80.00
65546;BME280;52177;55.968;37.498;2023-08-31T01:31:11;99688.91;;;13.54;80.07
65546;BME280;52177;55.968;37.498;2023-08-31T01:31:42;99686.22;;;13.54;80.05
65546;BME280;52177;55.968;37.498;2023-08-31T01:32:13;99689.91;;;13.52;80.24
65546;BME280;52177;55.968;37.498;2023-08-31T01:32:44;99688.91;;;13.54;80.19
65546;BME280;52177;55.968;37.498;2023-08-31T01:33:17;99686.22;;;13.54;80.16
65546;BME280;52177;55.968;37.498;2023-08-31T01:33:48;99681.69;;;13.54;80.25
65546;BME280;52177;55.968;37.498;2023-08-31T01:34:19;99686.03;;;13.55;80.17
65546;BME280;52177;55.968;37.498;2023-08-31T01:34:52;99694.06;;;13.55;80.08
65546;BME280;52177;55.968;37.498;2023-08-31T01:35:23;99688.91;;;13.54;80.20
65546;BME280;52177;55.968;37.498;2023-08-31T01:35:56;99683.56;;;13.54;80.14
65546;BME280;52177;55.968;37.498;2023-08-31T01:36:30;99683.56;;;13.54;80.18
65546;BME280;52177;55.968;37.498;2023-08-31T01:37:17;99688.06;;;13.53;80.32
65546;BME280;52177;55.968;37.498;2023-08-31T01:37:59;99684.78;;;13.51;80.38
65546;BME280;52177;55.968;37.498;2023-08-31T01:38:32;99696.31;;;13.51;80.53
65546;BME280;52177;55.968;37.498;2023-08-31T01:39:56;99697.31;;;13.50;80.67
65546;BME280;52177;55.968;37.498;2023-08-31T01:41:07;99685.59;;;13.51;80.69
65546;BME280;52177;55.968;37.498;2023-08-31T01:41:44;99685.59;;;13.51;80.80
65546;BME280;52177;55.968;37.498;2023-08-31T01:42:16;99683.75;;;13.52;80.74
65546;BME280;52177;55.968;37.498;2023-08-31T01:42:47;99687.06;;;13.54;80.69
65546;BME280;52177;55.968;37.498;2023-08-31T01:43:18;99687.88;;;13.55;80.50
65546;BME280;52177;55.968;37.498;2023-08-31T01:43:51;99688.69;;;13.55;80.48
65546;BME280;52177;55.968;37.498;2023-08-31T01:44:23;99686.88;;;13.56;80.54
65546;BME280;52177;55.968;37.498;2023-08-31T01:44:56;99682.34;;;13.56;80.62
65546;BME280;52177;55.968;37.498;2023-08-31T01:45:28;99685.19;;;13.55;80.61
65546;BME280;52177;55.968;37.498;2023-08-31T01:45:59;99689.34;;;13.57;80.52
65546;BME280;52177;55.968;37.498;2023-08-31T01:46:30;99686.03;;;13.55;80.67
65546;BME280;52177;55.968;37.498;2023-08-31T01:47:05;99685.66;;;13.58;80.72
65546;BME280;52177;55.968;37.498;2023-08-31T01:47:36;99687.47;;;13.58;80.88
65546;BME280;52177;55.968;37.498;2023-08-31T01:48:07;99688.31;;;13.58;80.89
65546;BME280;52177;55.968;37.498;2023-08-31T01:48:41;99691.81;;;13.59;80.89
65546;BME280;52177;55.968;37.498;2023-08-31T01:49:11;99686.28;;;13.60;80.80
65546;BME280;52177;55.968;37.498;2023-08-31T01:49:41;99686.06;;;13.62;80.93
65546;BME280;52177;55.968;37.498;2023-08-31T01:50:13;99695.78;;;13.63;81.02
65546;BME280;52177;55.968;37.498;2023-08-31T01:50:44;99696.59;;;13.63;81.03
65546;BME280;52177;55.968;37.498;2023-08-31T01:51:16;99696.38;;;13.65;81.09
65546;BME280;52177;55.968;37.498;2023-08-31T01:51:47;99686.69;;;13.64;81.03
65546;BME280;52177;55.968;37.498;2023-08-31T01:52:18;99681.97;;;13.66;81.25
65546;BME280;52177;55.968;37.498;2023-08-31T01:52:48;99684.47;;;13.67;81.12
65546;BME280;52177;55.968;37.498;2023-08-31T01:53:19;99683.44;;;13.68;81.08
65546;BME280;52177;55.968;37.498;2023-08-31T01:53:49;99681.56;;;13.69;81.25
65546;BME280;52177;55.968;37.498;2023-08-31T01:54:19;99680.56;;;13.70;81.19
65546;BME280;52177;55.968;37.498;2023-08-31T01:54:50;99688.38;;;13.71;81.17
65546;BME280;52177;55.968;37.498;2023-08-31T01:55:20;99686.34;;;13.73;81.34
65546;BME280;52177;55.968;37.498;2023-08-31T01:55:52;99686.34;;;13.73;81.13
65546;BME280;52177;55.968;37.498;2023-08-31T01:56:22;99685.97;;;13.77;81.33
65546;BME280;52177;55.968;37.498;2023-08-31T01:56:52;99691.94;;;13.79;81.30
65546;BME280;52177;55.968;37.498;2023-08-31T01:57:23;99686.38;;;13.80;81.54
65546;BME280;52177;55.968;37.498;2023-08-31T01:57:53;99683.69;;;13.80;81.42
65546;BME280;52177;55.968;37.498;2023-08-31T01:58:24;99691.56;;;13.82;81.48
65546;BME280;52177;55.968;37.498;2023-08-31T01:58:54;99689.69;;;13.82;81.52
65546;BME280;52177;55.968;37.498;2023-08-31T01:59:25;99692.19;;;13.84;81.45
65546;BME280;52177;55.968;37.498;2023-08-31T01:59:56;99686.59;;;13.85;81.37
65546;BME280;52177;55.968;37.498;2023-08-31T02:00:26;99695.47;;;13.86;81.25
65546;BME280;52177;55.968;37.498;2023-08-31T02:00:58;99691.97;;;13.85;81.20
65546;BME280;52177;55.968;37.498;2023-08-31T02:01:29;99692.78;;;13.86;81.31
65546;BME280;52177;55.968;37.498;2023-08-31T02:01:59;99695.28;;;13.87;81.43
65546;BME280;52177;55.968;37.498;2023-08-31T02:02:29;99693.22;;;13.89;81.29
65546;BME280;52177;55.968;37.498;2023-08-31T02:03:00;99685.19;;;13.89;81.25
65546;BME280;52177;55.968;37.498;2023-08-31T02:03:31;99685.00;;;13.91;81.36
65546;BME280;52177;55.968;37.498;2023-08-31T02:04:01;99692.81;;;13.92;81.33
65546;BME280;52177;55.968;37.498;2023-08-31T02:04:32;99689.97;;;13.94;81.19
65546;BME280;52177;55.968;37.498;2023-08-31T02:05:03;99690.59;;;13.96;81.29
65546;BME280;52177;55.968;37.498;2023-08-31T02:05:34;99685.88;;;13.98;81.42
65546;BME280;52177;55.968;37.498;2023-08-31T02:06:05;99686.69;;;13.99;81.31
65546;BME280;52177;55.968;37.498;2023-08-31T02:06:35;99689.19;;;14.00;81.32
65546;BME280;52177;55.968;37.498;2023-08-31T02:07:05;99691.63;;;14.02;81.41
65546;BME280;52177;55.968;37.498;2023-08-31T02:07:36;99680.72;;;14.03;81.36
65546;BME280;52177;55.968;37.498;2023-08-31T02:08:06;99685.06;;;14.04;81.30
65546;BME280;52177;55.968;37.498;2023-08-31T02:08:37;99691.25;;;14.05;81.28
65546;BME280;52177;55.968;37.498;2023-08-31T02:09:07;99673.31;;;14.05;81.19
65546;BME280;52177;55.968;37.498;2023-08-31T02:09:37;99678.47;;;14.07;81.27
65546;BME280;52177;55.968;37.498;2023-08-31T02:10:09;99687.97;;;14.09;81.13
65546;BME280;52177;55.968;37.498;2023-08-31T02:10:39;99678.28;;;14.08;81.24
65546;BME280;52177;55.968;37.498;2023-08-31T02:11:10;99680.75;;;14.10;81.00
65546;BME280;52177;55.968;37.498;2023-08-31T02:11:40;99686.13;;;14.10;81.02
65546;BME280;52177;55.968;37.498;2023-08-31T02:12:11;99678.06;;;14.10;81.10
65546;BME280;52177;55.968;37.498;2023-08-31T02:12:41;99679.72;;;14.11;81.33
65546;BME280;52177;55.968;37.498;2023-08-31T02:13:14;99675.41;;;14.10;81.21
65546;BME280;52177;55.968;37.498;2023-08-31T02:13:44;99678.06;;;14.10;81.05
65546;BME280;52177;55.968;37.498;2023-08-31T02:14:15;99678.06;;;14.10;80.92
65546;BME280;52177;55.968;37.498;2023-08-31T02:14:45;99679.94;;;14.09;81.06
65546;BME280;52177;55.968;37.498;2023-08-31T02:15:15;99680.75;;;14.10;80.96
65546;BME280;52177;55.968;37.498;2023-08-31T02:15:46;99678.06;;;14.10;81.13
65546;BME280;52177;55.968;37.498;2023-08-31T02:16:16;99678.28;;;14.08;81.18
65546;BME280;52177;55.968;37.498;2023-08-31T02:16:46;99680.94;;;14.08;81.13
65546;BME280;52177;55.968;37.498;2023-08-31T02:17:17;99677.44;;;14.08;81.21
65546;BME280;52177;55.968;37.498;2023-08-31T02:17:47;99677.44;;;14.08;81.29
65546;BME280;52177;55.968;37.498;2023-08-31T02:18:18;99682.63;;;14.09;81.22
65546;BME280;52177;55.968;37.498;2023-08-31T02:18:48;99684.66;;;14.07;81.20
65546;BME280;52177;55.968;37.498;2023-08-31T02:19:18;99674.78;;;14.08;81.38
65546;BME280;52177;55.968;37.498;2023-08-31T02:19:49;99673.09;;;14.07;81.23
65546;BME280;52177;55.968;37.498;2023-08-31T02:20:20;99676.63;;;14.07;81.30
65546;BME280;52177;55.968;37.498;2023-08-31T02:20:52;99675.59;;;14.08;81.11
65546;BME280;52177;55.968;37.498;2023-08-31T02:21:23;99667.53;;;14.08;81.26
65546;BME280;52177;55.968;37.498;2023-08-31T02:21:53;99677.44;;;14.08;81.26
65546;BME280;52177;55.968;37.498;2023-08-31T02:22:24;99670.22;;;14.08;81.22
65546;BME280;52177;55.968;37.498;2023-08-31T02:22:54;99672.09;;;14.08;81.20
65546;BME280;52177;55.968;37.498;2023-08-31T02:23:26;99675.41;;;14.10;81.29
65546;BME280;52177;55.968;37.498;2023-08-31T02:23:56;99671.91;;;14.09;81.39
65546;BME280;52177;55.968;37.498;2023-08-31T02:24:26;99667.53;;;14.08;81.37
65546;BME280;52177;55.968;37.498;2023-08-31T02:24:57;99675.41;;;14.10;81.37
65546;BME280;52177;55.968;37.498;2023-08-31T02:25:27;99674.59;;;14.09;81.38
65546;BME280;52177;55.968;37.498;2023-08-31T02:26:00;99666.53;;;14.09;81.11
65546;BME280;52177;55.968;37.498;2023-08-31T02:26:31;99675.59;;;14.08;81.15
65546;BME280;52177;55.968;37.498;2023-08-31T02:27:01;99667.72;;;14.07;81.03
65546;BME280;52177;55.968;37.498;2023-08-31T02:27:32;99675.78;;;14.07;81.30
65546;BME280;52177;55.968;37.498;2023-08-31T02:28:02;99677.25;;;14.09;81.17
65546;BME280;52177;55.968;37.498;2023-08-31T02:28:33;99670.22;;;14.08;81.30
65546;BME280;52177;55.968;37.498;2023-08-31T02:29:03;99671.03;;;14.09;81.09
65546;BME280;52177;55.968;37.498;2023-08-31T02:29:34;99668.19;;;14.10;81.21
65546;BME280;52177;55.968;37.498;2023-08-31T02:30:04;99674.34;;;14.11;81.10
65546;BME280;52177;55.968;37.498;2023-08-31T02:30:35;99681.41;;;14.12;81.05
65546;BME280;52177;55.968;37.498;2023-08-31T02:31:05;99677.03;;;14.11;81.17
65546;BME280;52177;55.968;37.498;2023-08-31T02:31:36;99673.13;;;14.13;81.34
65546;BME280;52177;55.968;37.498;2023-08-31T02:32:08;99674.16;;;14.12;81.13
65546;BME280;52177;55.968;37.498;2023-08-31T02:32:39;99677.66;;;14.13;81.25
65546;BME280;52177;55.968;37.498;2023-08-31T02:33:09;99676.03;;;14.12;81.39
65546;BME280;52177;55.968;37.498;2023-08-31T02:33:40;99678.50;;;14.13;81.27
65546;BME280;52177;55.968;37.498;2023-08-31T02:34:10;99677.47;;;14.14;81.46
65546;BME280;52177;55.968;37.498;2023-08-31T02:34:41;99673.94;;;14.14;81.35
65546;BME280;52177;55.968;37.498;2023-08-31T02:35:11;99677.47;;;14.14;81.27
65546;BME280;52177;55.968;37.498;2023-08-31T02:35:42;99675.63;;;14.15;81.36
65546;BME280;52177;55.968;37.498;2023-08-31T02:36:13;99672.13;;;14.14;81.29
65546;BME280;52177;55.968;37.498;2023-08-31T02:36:43;99667.56;;;14.15;81.42
65546;BME280;52177;55.968;37.498;2023-08-31T02:37:13;99673.94;;;14.14;81.35
65546;BME280;52177;55.968;37.498;2023-08-31T02:37:44;99673.34;;;14.12;81.39
65546;BME280;52177;55.968;37.498;2023-08-31T02:38:14;99670.66;;;14.12;81.49
65546;BME280;52177;55.968;37.498;2023-08-31T02:38:44;99670.66;;;14.12;81.43
65546;BME280;52177;55.968;37.498;2023-08-31T02:39:16;99674.16;;;14.12;81.52
65546;BME280;52177;55.968;37.498;2023-08-31T02:39:46;99670.66;;;14.12;81.52
65546;BME280;52177;55.968;37.498;2023-08-31T02:40:17;99665.09;;;14.13;81.52
65546;BME280;52177;55.968;37.498;2023-08-31T02:40:47;99672.31;;;14.13;81.40
65546;BME280;52177;55.968;37.498;2023-08-31T02:41:18;99666.94;;;14.13;81.39
65546;BME280;52177;55.968;37.498;2023-08-31T02:41:48;99668.19;;;14.10;81.50
65546;BME280;52177;55.968;37.498;2023-08-31T02:42:18;99659.09;;;14.11;81.41
65546;BME280;52177;55.968;37.498;2023-08-31T02:42:52;99664.47;;;14.11;81.46
65546;BME280;52177;55.968;37.498;2023-08-31T02:43:22;99664.25;;;14.13;81.48
65546;BME280;52177;55.968;37.498;2023-08-31T02:43:53;99660.75;;;14.12;81.53
65546;BME280;52177;55.968;37.498;2023-08-31T02:44:23;99661.59;;;14.13;81.39
65546;BME280;52177;55.968;37.498;2023-08-31T02:44:54;99665.72;;;14.15;81.38
65546;BME280;52177;55.968;37.498;2023-08-31T02:45:24;99666.53;;;14.16;81.56
65546;BME280;52177;55.968;37.498;2023-08-31T02:46:02;99664.47;;;14.18;81.47
65546;BME280;52177;55.968;37.498;2023-08-31T02:46:33;99661.81;;;14.18;81.18
65546;BME280;52177;55.968;37.498;2023-08-31T02:47:03;99668.22;;;14.17;81.09
65546;BME280;52177;55.968;37.498;2023-08-31T02:47:33;99666.53;;;14.16;81.16
65546;BME280;52177;55.968;37.498;2023-08-31T02:48:06;99665.72;;;14.15;81.03
65546;BME280;52177;55.968;37.498;2023-08-31T02:48:37;99666.75;;;14.14;81.13
65546;BME280;52177;55.968;37.498;2023-08-31T02:49:08;99666.53;;;14.16;81.17
65546;BME280;52177;55.968;37.498;2023-08-31T02:49:39;99664.47;;;14.18;81.05
65546;BME280;52177;55.968;37.498;2023-08-31T02:50:09;99669.03;;;14.18;80.91
65546;BME280;52177;55.968;37.498;2023-08-31T02:50:40;99666.16;;;14.19;81.12
65546;BME280;52177;55.968;37.498;2023-08-31T02:51:10;99660.56;;;14.21;81.03
65546;BME280;52177;55.968;37.498;2023-08-31T02:51:40;99661.44;;;14.21;81.05
65546;BME280;52177;55.968;37.498;2023-08-31T02:52:11;99662.88;;;14.24;80.97
65546;BME280;52177;55.968;37.498;2023-08-31T02:52:42;99669.06;;;14.24;80.89
65546;BME280;52177;55.968;37.498;2023-08-31T02:53:12;99662.66;;;14.25;81.05
65546;BME280;52177;55.968;37.498;2023-08-31T02:53:43;99661.84;;;14.25;80.87
65546;BME280;52177;55.968;37.498;2023-08-31T02:54:13;99654.59;;;14.25;80.98
65546;BME280;52177;55.968;37.498;2023-08-31T02:55:46;99655.47;;;14.26;80.74
65546;BME280;52177;55.968;37.498;2023-08-31T02:56:17;99662.47;;;14.27;80.65